Time;durP1;ratioP1;P1;durP2;ratioP2;P2;SDS_P1;SDS_P2;PMS_P1;PMS_P2;Temp;Humidity;BMP_temperature;BMP_pressure;BME280_temperature;BME280_humidity;BME280_pressure;Samples;Min_cycle;Max_cycle;Signal;HPM_P1;HPM_P2
2022/02/06 00:03:08;;;;;;;4.85;2.50;;;;;;;5.06;69.13;100101.70;2867955;82;21603;-72
2022/02/06 00:07:09;;;;;;;6.10;3.50;;;;;;;5.07;69.20;100100.30;2875380;81;21087;-71
2022/02/06 00:11:11;;;;;;;5.30;2.70;;;;;;;4.99;69.13;100098.13;2898525;82;21592;-71
2022/02/06 00:15:12;;;;;;;3.65;2.52;;;;;;;4.97;69.05;100096.06;2896181;82;21025;-74
2022/02/06 00:19:15;;;;;;;5.85;3.77;;;;;;;4.97;69.31;100089.48;2897014;82;21080;-72
2022/02/06 00:23:19;;;;;;;5.22;3.02;;;;;;;4.94;69.20;100079.12;2898468;82;21564;-74
2022/02/06 00:27:33;;;;;;;2.42;1.92;;;;;;;4.94;69.08;100072.53;2891077;82;21042;-72
2022/02/06 00:31:47;;;;;;;3.80;3.15;;;;;;;4.99;68.78;100064.31;2850788;83;21050;-72
2022/02/06 00:35:55;;;;;;;3.22;2.92;;;;;;;5.02;68.70;100055.38;2858794;81;21040;-74
2022/02/06 00:39:40;;;;;;;9.90;3.10;;;;;;;5.00;68.84;100055.01;2857276;82;21561;-71
2022/02/06 00:43:43;;;;;;;8.90;3.05;;;;;;;4.99;68.85;100053.77;2860315;83;21652;-71
2022/02/06 00:47:45;;;;;;;4.70;2.08;;;;;;;4.98;68.47;100046.35;2861754;82;21593;-71
2022/02/06 00:51:59;;;;;;;4.70;2.42;;;;;;;5.00;68.49;100039.64;2900889;81;21593;-74
2022/02/06 00:55:57;;;;;;;3.90;2.12;;;;;;;5.03;68.61;100032.03;2907722;81;21055;-74
2022/02/06 00:59:59;;;;;;;4.42;2.50;;;;;;;5.05;68.71;100019.59;2908131;81;21046;-71
2022/02/06 01:04:01;;;;;;;6.20;2.60;;;;;;;5.05;68.61;100013.00;2844310;82;21013;-72
2022/02/06 01:08:04;;;;;;;3.40;1.85;;;;;;;5.06;68.61;100005.47;2927433;80;21037;-70
2022/02/06 01:12:07;;;;;;;3.62;2.95;;;;;;;5.07;68.90;99997.93;2914378;81;21658;-70
2022/02/06 01:16:16;;;;;;;4.03;2.58;;;;;;;5.05;68.81;99993.23;2861831;83;21411;-72
2022/02/06 01:20:24;;;;;;;2.92;2.22;;;;;;;5.06;68.96;99989.64;2912989;81;21112;-72
2022/02/06 01:24:34;;;;;;;9.10;3.83;;;;;;;5.09;69.02;99978.91;2913636;81;22004;-74
2022/02/06 01:28:51;;;;;;;5.53;2.65;;;;;;;5.07;69.04;99972.42;2885802;81;21109;-72
2022/02/06 01:32:42;;;;;;;3.27;2.98;;;;;;;5.07;69.17;99968.93;2884334;80;21042;-74
2022/02/06 01:36:46;;;;;;;6.10;2.90;;;;;;;5.10;69.04;99963.45;2872870;81;21069;-73
2022/02/06 01:40:55;;;;;;;5.70;2.52;;;;;;;5.03;69.14;99966.12;2859671;82;21049;-72
2022/02/06 02:01:56;;;;;;;6.65;3.30;;;;;;;4.97;69.82;99938.35;2851975;83;21109;-74
2022/02/06 02:14:36;;;;;;;4.97;3.40;;;;;;;4.96;70.30;99925.66;2851848;83;21531;-74
2022/02/06 02:18:46;;;;;;;4.65;2.33;;;;;;;5.00;70.24;99917.06;2848219;83;21965;-74
2022/02/06 02:23:03;;;;;;;4.17;2.52;;;;;;;5.06;70.03;99911.88;2847971;83;21097;-74
2022/02/06 02:26:52;;;;;;;;;;;;;;;5.13;69.73;99900.00;2846520;83;22031;-73
2022/02/06 02:48:03;;;;;;;4.17;2.05;;;;;;;5.66;69.71;99862.20;2848324;83;22066;-74
2022/02/06 02:52:04;;;;;;;6.05;2.50;;;;;;;5.70;69.71;99862.39;2846907;83;21670;-75
2022/02/06 03:00:32;;;;;;;2.17;1.72;;;;;;;5.82;70.60;99844.86;2858538;83;21056;-73
2022/02/06 03:04:27;;;;;;;5.70;1.77;;;;;;;5.72;71.11;99828.33;2858496;82;21087;-71
2022/02/06 03:08:31;;;;;;;4.22;2.35;;;;;;;5.77;72.07;99820.10;2859814;82;21070;-72
2022/02/06 03:12:34;;;;;;;5.67;2.20;;;;;;;5.73;72.67;99808.08;2859989;82;21500;-75
2022/02/06 03:16:47;;;;;;;4.03;2.10;;;;;;;5.63;73.33;99801.27;2860143;82;21067;-74
2022/02/06 03:20:42;;;;;;;;;;;;;;;5.60;73.71;99794.03;2838068;82;21395;-75
2022/02/06 03:24:45;;;;;;;3.33;1.67;;;;;;;5.61;73.92;99785.16;2834534;83;20140;-74
2022/02/06 03:28:48;;;;;;;4.75;2.12;;;;;;;5.57;74.05;99773.51;2834987;82;21049;-70
2022/02/06 03:32:52;;;;;;;3.10;2.27;;;;;;;5.56;74.43;99771.82;2834780;83;21082;-71
2022/02/06 03:36:54;;;;;;;2.65;1.70;;;;;;;5.51;74.46;99767.80;2835815;83;21026;-74
2022/02/06 03:41:02;;;;;;;3.85;1.47;;;;;;;5.47;74.77;99755.30;2835039;83;21109;-71
2022/02/06 03:45:05;;;;;;;3.58;1.90;;;;;;;5.49;74.53;99748.11;2834378;83;21058;-70
2022/02/06 03:49:10;;;;;;;8.05;2.52;;;;;;;5.44;74.29;99738.36;2835256;83;21014;-74
2022/02/06 03:53:11;;;;;;;2.77;2.27;;;;;;;5.49;74.03;99733.60;2847926;83;21034;-74
2022/02/06 03:57:13;;;;;;;4.33;1.90;;;;;;;5.53;73.78;99724.55;2849584;83;21439;-70
2022/02/06 04:01:16;;;;;;;1.17;0.98;;;;;;;5.56;73.64;99716.88;2849975;83;21045;-74
2022/02/06 04:05:18;;;;;;;2.65;1.92;;;;;;;5.58;73.68;99718.92;2897798;81;21091;-73
2022/02/06 04:09:31;;;;;;;4.28;2.30;;;;;;;5.63;73.17;99700.14;2891855;81;21011;-73
2022/02/06 04:13:26;;;;;;;2.22;1.95;;;;;;;5.72;73.11;99690.27;2889798;82;21019;-70
2022/02/06 04:17:35;;;;;;;2.10;1.77;;;;;;;5.74;72.64;99685.72;2891845;82;21475;-74
2022/02/06 04:21:34;;;;;;;3.62;1.35;;;;;;;5.79;72.39;99676.99;2892197;82;21035;-72
2022/02/06 04:25:38;;;;;;;3.22;1.35;;;;;;;5.89;72.30;99663.11;2892038;82;21532;-72
2022/02/06 04:29:40;;;;;;;2.95;1.45;;;;;;;5.95;72.47;99649.49;2892951;81;21047;-73
2022/02/06 04:33:41;;;;;;;2.50;1.12;;;;;;;5.99;71.77;99639.92;2892810;82;21078;-72
2022/02/06 04:38:11;;;;;;;1.57;0.70;;;;;;;6.03;71.89;99631.80;2891815;82;21025;-74
2022/02/06 04:42:05;;;;;;;4.10;2.02;;;;;;;6.03;71.50;99614.64;2883963;82;21376;-72
2022/02/06 04:54:54;;;;;;;1.50;0.93;;;;;;;6.19;71.03;99596.71;2861074;83;21591;-73
2022/02/06 05:28:34;;;;;;;1.23;0.97;;;;;;;6.56;70.68;99565.33;2833365;83;21078;-72
2022/02/06 05:32:50;;;;;;;2.55;1.77;;;;;;;6.54;71.03;99556.69;2833292;83;21540;-70
2022/02/06 05:36:38;;;;;;;4.78;1.27;;;;;;;6.52;71.03;99552.00;2831300;83;21989;-70
2022/02/06 05:40:41;;;;;;;0.40;0.37;;;;;;;6.54;71.29;99545.62;2834356;83;21528;-70
2022/02/06 05:44:47;;;;;;;0.70;0.60;;;;;;;6.59;71.47;99543.95;2834364;83;21672;-72
2022/02/06 05:48:47;;;;;;;1.55;0.35;;;;;;;6.65;70.91;99538.19;2833739;83;21363;-73
2022/02/06 05:52:48;;;;;;;1.65;0.45;;;;;;;6.64;70.93;99533.86;2840654;83;21067;-74
2022/02/06 05:56:50;;;;;;;0.85;0.25;;;;;;;6.64;71.65;99523.29;2842905;83;21046;-73
2022/02/06 06:00:54;;;;;;;1.17;0.93;;;;;;;6.64;72.49;99523.78;2842215;83;21011;-73
2022/02/06 06:04:59;;;;;;;0.40;0.40;;;;;;;6.59;73.90;99516.20;2842486;83;21066;-70
2022/02/06 06:09:01;;;;;;;0.60;0.60;;;;;;;6.59;74.66;99519.34;2843647;83;21011;-74
2022/02/06 06:13:03;;;;;;;0.70;0.35;;;;;;;6.53;75.44;99510.08;2843366;83;21467;-74
2022/02/06 06:17:05;;;;;;;0.47;0.40;;;;;;;6.50;75.92;99509.83;2842239;83;21661;-72
2022/02/06 06:21:08;;;;;;;0.30;0.20;;;;;;;6.52;75.94;99508.41;2843386;82;21023;-74
2022/02/06 06:25:13;;;;;;;0.40;0.40;;;;;;;6.49;76.17;99509.47;2851072;82;21035;-71
2022/02/06 06:29:18;;;;;;;0.55;0.45;;;;;;;6.46;77.19;99506.22;2879173;82;21046;-71
2022/02/06 06:33:20;;;;;;;0.15;0.10;;;;;;;6.41;78.49;99499.98;2886108;82;21563;-70
2022/02/06 06:37:22;;;;;;;0.65;0.30;;;;;;;6.36;78.50;99496.38;2887796;81;21043;-74
2022/02/06 06:41:24;;;;;;;1.00;0.33;;;;;;;6.26;79.20;99488.31;2877065;82;21094;-75
2022/02/06 06:45:27;;;;;;;0.70;0.50;;;;;;;6.27;79.11;99490.45;2873131;81;21035;-74
2022/02/06 06:49:30;;;;;;;0.82;0.50;;;;;;;6.27;79.28;99479.89;2873252;82;21359;-76
2022/02/06 06:53:37;;;;;;;1.32;0.70;;;;;;;6.27;79.46;99481.22;2874445;82;21038;-73
2022/02/06 06:57:42;;;;;;;1.60;0.57;;;;;;;6.23;79.27;99471.85;2873833;82;21086;-75
2022/02/06 07:01:46;;;;;;;2.02;0.47;;;;;;;6.27;79.22;99475.94;2873876;82;21033;-72
2022/02/06 07:05:48;;;;;;;0.33;0.33;;;;;;;6.33;79.23;99463.59;2886295;81;21015;-71
2022/02/06 07:09:49;;;;;;;0.53;0.50;;;;;;;6.33;78.79;99457.45;2897727;82;21717;-75
2022/02/06 07:13:52;;;;;;;0.78;0.78;;;;;;;6.36;78.53;99455.43;2896544;82;21083;-76
2022/02/06 07:17:54;;;;;;;2.37;0.50;;;;;;;6.43;78.18;99450.02;2897147;81;21040;-73
2022/02/06 07:21:57;;;;;;;1.30;0.72;;;;;;;6.45;78.09;99447.27;2898053;82;21064;-73
2022/02/06 07:26:02;;;;;;;2.00;0.40;;;;;;;6.53;78.13;99445.34;2898178;82;21088;-72
2022/02/06 07:30:06;;;;;;;1.47;0.78;;;;;;;6.51;78.15;99434.06;2897770;82;21097;-72
2022/02/06 07:34:07;;;;;;;1.60;0.40;;;;;;;6.61;78.00;99424.93;2898277;82;21066;-71
2022/02/06 07:38:11;;;;;;;0.80;0.60;;;;;;;6.67;77.59;99417.33;2898082;81;21043;-73
2022/02/06 07:42:13;;;;;;;2.15;0.65;;;;;;;6.70;77.18;99414.94;2899285;82;21427;-71
2022/02/06 07:46:19;;;;;;;0.37;0.37;;;;;;;6.75;77.04;99406.14;2898919;81;20987;-71
2022/02/06 07:50:19;;;;;;;0.30;0.30;;;;;;;6.82;76.62;99393.28;2899144;81;21043;-75
2022/02/06 07:54:20;;;;;;;0.50;0.40;;;;;;;6.93;76.92;99399.87;2893454;81;21039;-72
2022/02/06 07:58:25;;;;;;;1.15;0.82;;;;;;;7.00;76.79;99388.33;2881123;82;20984;-73
2022/02/06 08:02:27;;;;;;;1.00;0.20;;;;;;;7.00;77.03;99384.36;2892863;82;21496;-72
2022/02/06 08:06:29;;;;;;;0.20;0.20;;;;;;;7.01;76.71;99379.43;2872795;81;21062;-74
2022/02/06 08:10:31;;;;;;;0.65;0.30;;;;;;;7.04;76.89;99372.56;2844516;81;21049;-74
2022/02/06 08:18:47;;;;;;;0.50;0.50;;;;;;;7.08;76.53;99359.94;2843105;83;21018;-71
2022/02/06 08:22:51;;;;;;;0.30;0.30;;;;;;;7.15;76.48;99361.92;2842788;83;21026;-72
2022/02/06 08:26:52;;;;;;;1.75;1.00;;;;;;;7.17;76.14;99347.73;2864290;82;21075;-71
2022/02/06 08:30:54;;;;;;;0.30;0.30;;;;;;;7.17;75.73;99338.47;2890636;82;21476;-72
2022/02/06 08:34:57;;;;;;;0.82;0.30;;;;;;;7.25;75.44;99335.55;2887673;82;21458;-72
2022/02/06 08:38:59;;;;;;;0.65;0.62;;;;;;;7.29;74.48;99329.06;2878858;82;21102;-73
2022/02/06 08:43:00;;;;;;;0.50;0.40;;;;;;;7.33;74.29;99320.36;2876242;82;20995;-74
2022/02/06 08:47:03;;;;;;;1.92;0.55;;;;;;;7.39;74.76;99315.05;2883187;81;20983;-71
2022/02/06 08:51:06;;;;;;;1.07;0.75;;;;;;;7.49;74.50;99315.11;2874179;82;21054;-72
2022/02/06 08:55:09;;;;;;;2.27;1.25;;;;;;;7.55;74.59;99302.67;2895455;82;21047;-75
2022/02/06 08:59:12;;;;;;;0.70;0.42;;;;;;;7.67;74.09;99307.42;2874750;82;21419;-73
2022/02/06 09:03:13;;;;;;;1.40;0.93;;;;;;;7.67;73.60;99299.48;2897807;82;21380;-73
2022/02/06 09:07:16;;;;;;;0.80;0.80;;;;;;;7.74;74.06;99305.06;2885920;81;21042;-72
2022/02/06 09:11:19;;;;;;;1.05;0.95;;;;;;;7.77;73.92;99302.19;2900502;82;21046;-74
2022/02/06 09:15:23;;;;;;;1.07;0.60;;;;;;;7.75;73.59;99289.06;2891198;80;21332;-72
2022/02/06 09:19:26;;;;;;;1.30;0.60;;;;;;;7.75;74.01;99278.47;2878498;81;21054;-71
2022/02/06 09:23:28;;;;;;;1.00;0.85;;;;;;;7.82;74.50;99277.47;2874072;82;21611;-70
2022/02/06 09:27:35;;;;;;;1.20;1.00;;;;;;;7.88;73.77;99272.95;2887916;81;21043;-71
2022/02/06 09:31:36;;;;;;;1.52;0.85;;;;;;;7.88;73.99;99270.80;2875717;82;21027;-71
2022/02/06 09:35:38;;;;;;;0.72;0.68;;;;;;;7.86;73.89;99262.51;2884050;82;21034;-74
2022/02/06 09:39:41;;;;;;;1.72;1.27;;;;;;;7.91;73.38;99263.91;2880541;81;20987;-71
2022/02/06 09:43:44;;;;;;;1.00;0.68;;;;;;;7.94;72.87;99261.81;2899139;82;21054;-72
2022/02/06 09:47:49;;;;;;;0.85;0.60;;;;;;;8.01;73.16;99254.17;2886567;81;21031;-71
2022/02/06 09:51:50;;;;;;;0.47;0.33;;;;;;;8.02;73.02;99253.20;2850974;82;21419;-73
2022/02/06 09:55:53;;;;;;;1.75;1.12;;;;;;;8.12;73.41;99242.63;2849683;82;21062;-71
2022/02/06 09:59:57;;;;;;;0.68;0.47;;;;;;;8.18;71.98;99239.94;2876537;82;21031;-70
2022/02/06 10:04:06;;;;;;;1.40;0.90;;;;;;;8.30;72.82;99242.83;2892629;81;21023;-70
2022/02/06 10:08:31;;;;;;;0.68;0.65;;;;;;;8.29;72.65;99235.86;2882220;82;21011;-71
2022/02/06 10:12:41;;;;;;;0.65;0.62;;;;;;;8.32;71.92;99230.28;2880824;82;21047;-70
2022/02/06 10:16:43;;;;;;;0.60;0.40;;;;;;;8.32;71.78;99219.67;2887067;81;21086;-70
2022/02/06 10:20:47;;;;;;;0.50;0.45;;;;;;;8.40;71.53;99211.86;2884955;81;20980;-70
2022/02/06 10:25:06;;;;;;;1.52;1.05;;;;;;;8.43;72.18;99202.81;2877796;82;21042;-72
2022/02/06 10:29:26;;;;;;;0.68;0.50;;;;;;;8.46;71.35;99193.76;2892117;82;21011;-71
2022/02/06 10:33:44;;;;;;;0.50;0.50;;;;;;;8.52;70.77;99187.92;2844945;82;21418;-71
2022/02/06 10:37:50;;;;;;;0.60;0.42;;;;;;;8.59;70.58;99173.13;2867721;82;21375;-71
2022/02/06 10:41:54;;;;;;;0.95;0.37;;;;;;;8.64;70.58;99174.86;2878242;82;21042;-71
2022/02/06 10:46:09;;;;;;;0.68;0.50;;;;;;;8.63;70.50;99169.20;2875427;82;21052;-71
2022/02/06 10:50:18;;;;;;;0.65;0.60;;;;;;;8.74;70.16;99159.44;2885510;82;21075;-72
2022/02/06 10:54:35;;;;;;;1.47;0.60;;;;;;;8.89;70.90;99160.68;2887839;81;21906;-71
2022/02/06 10:58:38;;;;;;;1.45;0.70;;;;;;;9.04;70.93;99146.94;2881130;81;21376;-72
2022/02/06 11:02:59;;;;;;;0.90;0.60;;;;;;;9.28;70.24;99127.88;2874147;81;21070;-71
2022/02/06 11:07:06;;;;;;;1.17;0.60;;;;;;;9.48;70.15;99120.67;2870669;82;21043;-72
2022/02/06 11:11:06;;;;;;;1.17;0.62;;;;;;;9.69;69.37;99098.34;2883261;82;21098;-71
2022/02/06 11:15:32;;;;;;;0.90;0.42;;;;;;;9.92;68.83;99089.94;2884890;82;21082;-75
2022/02/06 11:19:37;;;;;;;1.57;0.88;;;;;;;10.02;67.01;99080.06;2869262;82;21058;-72
2022/02/06 11:23:46;;;;;;;0.85;0.50;;;;;;;10.19;68.62;99062.94;2865013;82;21840;-71
2022/02/06 11:27:50;;;;;;;1.72;1.32;;;;;;;10.18;67.18;99040.02;2877576;82;21023;-73
2022/02/06 11:31:55;;;;;;;3.05;0.53;;;;;;;10.26;66.83;99045.41;2879047;82;21075;-72
2022/02/06 11:36:03;;;;;;;1.02;0.35;;;;;;;10.27;66.13;99033.78;2875847;81;21023;-72
2022/02/06 11:45:12;;;;;;;1.70;0.88;;;;;;;10.25;66.40;99026.47;2863921;82;21039;-75
2022/02/06 11:49:17;;;;;;;0.57;0.53;;;;;;;10.22;67.69;99020.95;2876167;81;20995;-77
2022/02/06 11:53:38;;;;;;;0.68;0.42;;;;;;;10.25;66.47;99023.81;2882023;82;21004;-74
2022/02/06 11:57:40;;;;;;;0.60;0.28;;;;;;;10.37;67.37;99014.57;2875792;82;21633;-72
2022/02/06 12:01:43;;;;;;;1.12;0.70;;;;;;;10.40;66.51;99006.31;2879010;82;21035;-72
2022/02/06 12:05:59;;;;;;;1.15;1.05;;;;;;;10.38;65.78;98997.63;2892785;82;21078;-71
2022/02/06 12:10:01;;;;;;;3.15;1.40;;;;;;;10.29;65.97;98999.40;2894881;81;21639;-70
2022/02/06 12:14:20;;;;;;;1.82;0.98;;;;;;;10.30;66.36;98998.92;2894656;81;21026;-69
2022/02/06 12:18:35;;;;;;;2.20;0.95;;;;;;;10.26;66.09;98982.44;2892382;82;21027;-74
2022/02/06 12:22:51;;;;;;;2.98;1.05;;;;;;;10.25;65.47;98991.91;2844438;82;21107;-72
2022/02/06 12:26:53;;;;;;;3.00;1.93;;;;;;;10.24;65.52;98948.55;2855251;82;21007;-72
2022/02/06 12:30:59;;;;;;;8.00;5.03;;;;;;;10.24;65.61;98967.66;2886662;82;21611;-71
2022/02/06 12:39:26;;;;;;;1.92;1.60;;;;;;;10.23;64.93;98937.58;2875336;81;21059;-73
2022/02/06 12:43:33;;;;;;;2.22;0.78;;;;;;;10.22;66.65;98945.70;2881773;82;21011;-72
2022/02/06 12:47:42;;;;;;;0.60;0.60;;;;;;;10.22;65.48;98940.38;2882180;82;21058;-71
2022/02/06 12:51:44;;;;;;;2.22;1.07;;;;;;;10.24;65.96;98929.13;2882371;81;21381;-72
2022/02/06 12:55:48;;;;;;;1.12;1.02;;;;;;;10.17;66.07;98920.94;2878673;81;21677;-72
2022/02/06 12:59:49;;;;;;;1.32;0.93;;;;;;;10.08;66.08;98917.88;2880626;81;20980;-73
2022/02/06 13:03:54;;;;;;;1.75;0.68;;;;;;;10.06;65.91;98911.41;2839393;81;21018;-74
2022/02/06 13:07:56;;;;;;;0.55;0.50;;;;;;;9.96;65.50;98892.07;2871138;82;21051;-74
2022/02/06 13:12:15;;;;;;;1.40;1.02;;;;;;;9.96;66.70;98894.73;2848349;81;20977;-72
2022/02/06 13:16:35;;;;;;;2.08;0.95;;;;;;;9.90;65.63;98886.06;2868723;81;21546;-74
2022/02/06 13:33:03;;;;;;;1.45;0.90;;;;;;;9.90;65.96;98831.10;2836384;83;21059;-71
2022/02/06 13:36:58;;;;;;;1.57;0.90;;;;;;;9.83;65.86;98816.80;2847939;83;21070;-73
2022/02/06 13:40:57;;;;;;;2.47;1.10;;;;;;;9.77;66.11;98800.98;2850514;83;21027;-71
2022/02/06 13:45:09;;;;;;;2.30;1.00;;;;;;;9.69;65.66;98792.99;2850935;83;21081;-72
2022/02/06 13:49:11;;;;;;;3.12;1.50;;;;;;;9.70;66.13;98792.81;2862022;81;21047;-73
2022/02/06 13:53:20;;;;;;;1.37;1.00;;;;;;;9.60;66.19;98777.98;2900068;82;21051;-71
2022/02/06 13:57:23;;;;;;;0.62;0.62;;;;;;;9.70;67.29;98776.06;2900817;81;21297;-72
2022/02/06 14:01:42;;;;;;;3.08;1.02;;;;;;;9.63;66.59;98759.08;2900949;81;21094;-72
2022/02/06 14:05:52;;;;;;;3.35;1.65;;;;;;;9.61;66.03;98756.60;2901053;81;21019;-71
2022/02/06 14:10:14;;;;;;;1.17;0.95;;;;;;;9.61;66.88;98746.46;2882945;81;21471;-70
2022/02/06 14:14:20;;;;;;;1.45;0.90;;;;;;;9.54;66.66;98739.65;2887071;82;21941;-70
2022/02/06 14:18:22;;;;;;;1.80;1.10;;;;;;;9.51;66.21;98722.69;2907601;80;21038;-70
2022/02/06 14:22:33;;;;;;;3.42;1.95;;;;;;;9.55;67.25;98719.56;2908604;80;21342;-70
2022/02/06 14:26:35;;;;;;;2.55;1.65;;;;;;;9.54;67.21;98721.88;2846526;82;21017;-71
2022/02/06 14:30:40;;;;;;;1.32;1.20;;;;;;;9.47;67.11;98713.37;2933535;80;21006;-70
2022/02/06 14:34:56;;;;;;;2.33;1.45;;;;;;;9.51;67.09;98710.73;2865575;82;21110;-78
2022/02/06 14:39:01;;;;;;;4.87;1.65;;;;;;;9.43;66.93;98694.27;2872718;82;21063;-73
2022/02/06 14:43:22;;;;;;;3.52;1.62;;;;;;;9.44;67.83;98684.02;2870283;82;21063;-73
2022/02/06 14:47:05;;;;;;;3.83;1.77;;;;;;;9.35;67.55;98675.66;2861392;82;20992;-72
2022/02/06 14:51:11;;;;;;;1.62;1.32;;;;;;;9.39;67.33;98663.73;2872095;82;21090;-73
2022/02/06 14:55:14;;;;;;;3.58;1.60;;;;;;;9.39;67.57;98644.68;2865514;82;21003;-73
2022/02/06 14:59:16;;;;;;;4.35;1.50;;;;;;;9.28;67.20;98631.20;2861527;83;21073;-76
2022/02/06 15:03:18;;;;;;;1.30;1.10;;;;;;;9.33;67.16;98620.59;2863244;82;21102;-76
2022/02/06 15:07:19;;;;;;;3.98;2.30;;;;;;;9.33;67.47;98611.31;2882700;82;21611;-76
2022/02/06 15:11:22;;;;;;;3.85;2.33;;;;;;;9.32;66.84;98605.67;2882833;82;21008;-73
2022/02/06 15:15:31;;;;;;;2.87;1.60;;;;;;;9.29;67.70;98602.34;2882474;82;21019;-76
2022/02/06 15:19:32;;;;;;;4.50;1.90;;;;;;;9.23;67.20;98588.36;2881527;82;21564;-74
2022/02/06 15:23:35;;;;;;;2.87;1.20;;;;;;;9.19;67.89;98567.13;2882712;82;21659;-76
2022/02/06 15:27:37;;;;;;;5.22;1.30;;;;;;;9.09;67.84;98561.95;2883326;82;21044;-75
2022/02/06 15:31:39;;;;;;;2.90;1.55;;;;;;;9.03;68.57;98551.14;2882130;82;21099;-75
2022/02/06 15:35:43;;;;;;;4.97;3.37;;;;;;;8.97;68.59;98542.83;2881809;82;21051;-74
2022/02/06 15:39:46;;;;;;;2.75;1.95;;;;;;;8.84;69.13;98538.45;2882691;82;21419;-73
2022/02/06 15:43:47;;;;;;;3.87;3.12;;;;;;;8.74;69.88;98520.00;2883733;82;21059;-73
2022/02/06 15:47:49;;;;;;;3.15;2.85;;;;;;;8.49;70.95;98513.72;2882671;82;21034;-73
2022/02/06 15:51:51;;;;;;;3.10;2.05;;;;;;;8.18;71.75;98496.45;2882471;82;21050;-73
2022/02/06 15:55:52;;;;;;;3.20;2.40;;;;;;;8.12;72.29;98493.08;2877343;82;21058;-73
2022/02/06 15:59:54;;;;;;;2.45;1.85;;;;;;;7.97;72.69;98487.52;2876083;82;21435;-74
2022/02/06 16:03:56;;;;;;;7.15;3.75;;;;;;;7.91;73.06;98468.28;2875857;82;21047;-76
2022/02/06 16:07:57;;;;;;;11.05;5.72;;;;;;;7.72;73.86;98467.47;2875862;82;21524;-76
2022/02/06 16:12:00;;;;;;;6.45;4.42;;;;;;;7.68;74.18;98454.20;2875632;82;21082;-74
2022/02/06 16:16:03;;;;;;;5.12;3.80;;;;;;;7.58;74.47;98445.84;2875348;82;21035;-73
2022/02/06 16:20:10;;;;;;;6.45;4.10;;;;;;;7.52;74.67;98427.09;2876112;82;21086;-73
2022/02/06 16:24:11;;;;;;;5.85;3.15;;;;;;;7.42;75.27;98419.23;2875353;82;21055;-74
2022/02/06 16:28:13;;;;;;;3.87;2.67;;;;;;;7.42;75.27;98413.94;2874273;82;21466;-72
2022/02/06 16:32:14;;;;;;;4.33;3.20;;;;;;;7.34;75.48;98400.14;2874618;82;21575;-76
2022/02/06 16:36:17;;;;;;;3.55;2.25;;;;;;;7.40;75.59;98393.42;2873998;82;21067;-74
2022/02/06 16:40:19;;;;;;;4.22;1.62;;;;;;;7.33;75.96;98386.58;2874307;82;21054;-75
2022/02/06 16:44:20;;;;;;;5.85;1.77;;;;;;;7.37;76.01;98372.56;2875122;82;21059;-73
2022/02/06 16:48:22;;;;;;;3.47;1.67;;;;;;;7.33;76.24;98353.52;2875351;82;21008;-75
2022/02/06 16:52:24;;;;;;;3.62;1.57;;;;;;;7.32;76.20;98353.69;2875291;82;21548;-73
2022/02/06 16:56:26;;;;;;;1.47;1.30;;;;;;;7.27;76.29;98353.66;2877478;82;21023;-75
2022/02/06 17:00:27;;;;;;;3.62;1.40;;;;;;;7.32;76.61;98342.60;2879648;82;21050;-75
2022/02/06 17:04:29;;;;;;;5.78;1.35;;;;;;;7.38;76.33;98331.43;2878203;82;21090;-76
2022/02/06 17:08:33;;;;;;;1.12;1.02;;;;;;;7.34;76.43;98338.49;2879884;82;21059;-73
2022/02/06 17:12:34;;;;;;;2.40;1.77;;;;;;;7.33;76.56;98311.20;2880184;82;21047;-73
2022/02/06 17:16:36;;;;;;;3.40;2.12;;;;;;;7.36;76.06;98301.63;2880304;82;21027;-74
2022/02/06 17:20:38;;;;;;;1.67;1.22;;;;;;;7.37;76.27;98307.77;2879153;82;21015;-74
2022/02/06 17:24:41;;;;;;;2.67;1.20;;;;;;;7.41;76.34;98291.91;2880251;82;21429;-73
2022/02/06 17:28:43;;;;;;;2.17;1.72;;;;;;;7.38;76.66;98285.14;2879940;82;21051;-76
2022/02/06 17:32:45;;;;;;;1.62;0.80;;;;;;;7.45;76.95;98280.03;2880619;82;21399;-72
2022/02/06 17:36:46;;;;;;;3.08;1.15;;;;;;;7.47;77.83;98271.95;2880170;82;21106;-75
2022/02/06 17:40:48;;;;;;;2.20;0.98;;;;;;;7.51;77.90;98256.95;2881682;82;21055;-74
2022/02/06 17:44:50;;;;;;;3.22;1.67;;;;;;;7.45;77.92;98253.58;2880681;82;21043;-76
2022/02/06 17:48:53;;;;;;;3.42;1.62;;;;;;;7.44;77.87;98234.73;2880590;82;21023;-74
2022/02/06 17:52:58;;;;;;;1.82;1.40;;;;;;;7.45;77.68;98236.89;2881133;82;20984;-74
2022/02/06 17:56:58;;;;;;;3.22;1.57;;;;;;;7.48;77.11;98230.81;2879676;82;21055;-73
2022/02/06 18:01:00;;;;;;;3.40;1.00;;;;;;;7.50;77.17;98218.73;2880472;82;21071;-76
2022/02/06 18:05:01;;;;;;;3.25;1.35;;;;;;;7.51;77.53;98226.52;2878934;82;21083;-76
2022/02/06 18:09:04;;;;;;;1.85;1.52;;;;;;;7.47;77.19;98221.69;2879858;82;21062;-74
2022/02/06 18:13:06;;;;;;;1.02;0.35;;;;;;;7.51;76.60;98201.39;2880878;82;21323;-73
2022/02/06 18:17:08;;;;;;;1.05;0.42;;;;;;;7.78;74.69;98196.88;2881075;82;21039;-76
2022/02/06 18:21:14;;;;;;;1.05;0.37;;;;;;;8.05;74.26;98191.50;2882194;82;21047;-76
2022/02/06 18:25:15;;;;;;;0.40;0.35;;;;;;;8.19;73.54;98180.77;2883399;82;21004;-74
2022/02/06 18:29:17;;;;;;;1.65;0.53;;;;;;;8.24;73.58;98173.16;2882249;82;21039;-74
2022/02/06 18:33:18;;;;;;;0.75;0.40;;;;;;;8.27;73.58;98172.86;2880650;82;20995;-76
2022/02/06 18:37:20;;;;;;;1.07;0.37;;;;;;;8.26;73.96;98168.05;2880693;82;21051;-74
2022/02/06 18:41:23;;;;;;;1.22;0.40;;;;;;;8.23;74.52;98160.43;2881199;82;21043;-75
2022/02/06 18:45:25;;;;;;;0.57;0.57;;;;;;;8.14;74.34;98154.29;2880420;82;21031;-76
2022/02/06 18:49:26;;;;;;;0.95;0.30;;;;;;;8.09;73.83;98131.45;2880758;82;20979;-75
2022/02/06 18:53:28;;;;;;;2.92;0.23;;;;;;;8.17;73.86;98136.41;2871325;82;21086;-74
2022/02/06 18:57:30;;;;;;;0.62;0.20;;;;;;;8.15;73.10;98128.62;2861258;81;21082;-72
2022/02/06 19:01:32;;;;;;;0.20;0.20;;;;;;;8.18;73.19;98124.34;2855767;82;21580;-71
2022/02/06 19:05:37;;;;;;;1.90;0.33;;;;;;;8.18;72.63;98135.42;2851256;83;21015;-72
2022/02/06 19:09:41;;;;;;;0.70;0.40;;;;;;;8.23;72.73;98142.38;2861972;82;21023;-71
2022/02/06 19:13:42;;;;;;;1.95;0.60;;;;;;;8.22;73.17;98134.09;2862563;82;21086;-74
2022/02/06 19:17:43;;;;;;;1.62;0.65;;;;;;;8.24;72.56;98130.30;2859287;81;21586;-74
2022/02/06 19:21:47;;;;;;;1.02;0.82;;;;;;;8.29;72.73;98135.12;2889073;82;20984;-74
2022/02/06 19:25:49;;;;;;;1.10;0.60;;;;;;;8.32;73.03;98137.44;2888428;82;21514;-72
2022/02/06 19:29:51;;;;;;;4.53;1.02;;;;;;;8.32;73.53;98145.38;2887918;82;21523;-73
2022/02/06 19:33:52;;;;;;;0.40;0.40;;;;;;;8.28;73.03;98141.41;2888639;82;21549;-73
2022/02/06 19:37:56;;;;;;;0.70;0.20;;;;;;;8.32;73.37;98129.97;2877548;82;21028;-73
2022/02/06 19:41:57;;;;;;;0.25;0.20;;;;;;;8.31;73.49;98135.78;2888274;82;21392;-72
2022/02/06 19:46:00;;;;;;;0.15;0.15;;;;;;;8.26;74.15;98136.27;2868079;82;21035;-75
2022/02/06 19:50:04;;;;;;;0.62;0.30;;;;;;;8.25;74.48;98149.17;2866966;82;21079;-75
2022/02/06 19:54:05;;;;;;;0.90;0.30;;;;;;;8.24;74.77;98140.05;2866687;82;21058;-73
2022/02/06 19:58:07;;;;;;;2.37;0.40;;;;;;;8.19;74.78;98117.22;2866264;82;21458;-74
2022/02/06 20:02:09;;;;;;;0.90;0.47;;;;;;;8.15;74.50;98116.22;2884227;81;21042;-71
2022/02/06 20:06:13;;;;;;;1.15;0.30;;;;;;;8.11;74.79;98122.84;2918979;81;21006;-72
2022/02/06 20:10:14;;;;;;;2.83;0.62;;;;;;;8.06;74.75;98130.94;2918991;81;21022;-74
2022/02/06 20:14:16;;;;;;;0.88;0.20;;;;;;;8.00;76.68;98127.11;2871025;81;21039;-71
2022/02/06 20:18:18;;;;;;;1.47;0.37;;;;;;;7.83;80.15;98125.75;2865645;82;21425;-72
2022/02/06 20:22:20;;;;;;;0.78;0.53;;;;;;;7.66;81.59;98135.94;2866509;82;21027;-72
2022/02/06 20:26:25;;;;;;;1.42;0.93;;;;;;;7.49;81.62;98151.78;2866956;82;21683;-73
2022/02/06 20:30:27;;;;;;;0.68;0.57;;;;;;;7.38;81.70;98131.73;2868562;82;21019;-72
2022/02/06 20:34:29;;;;;;;0.50;0.20;;;;;;;7.37;81.58;98158.32;2874481;82;21014;-74
2022/02/06 20:38:36;;;;;;;1.20;0.88;;;;;;;7.26;81.01;98149.66;2871057;82;21051;-72
2022/02/06 20:42:36;;;;;;;0.88;0.68;;;;;;;7.25;81.03;98141.90;2860030;81;21055;-74
2022/02/06 20:46:39;;;;;;;0.40;0.40;;;;;;;7.19;81.24;98183.02;2850107;82;21552;-73
2022/02/06 20:50:41;;;;;;;2.60;1.00;;;;;;;7.16;81.46;98180.69;2862292;82;21451;-72
2022/02/06 20:54:43;;;;;;;1.00;0.70;;;;;;;7.18;81.16;98177.90;2866414;82;21081;-72
2022/02/06 20:58:49;;;;;;;2.22;1.10;;;;;;;7.15;81.19;98182.48;2878484;82;21435;-74
2022/02/06 21:02:51;;;;;;;1.55;0.72;;;;;;;7.11;81.48;98193.55;2856910;82;21051;-73
2022/02/06 21:06:52;;;;;;;0.40;0.40;;;;;;;7.06;81.75;98209.87;2872818;82;21537;-69
2022/02/06 21:10:59;;;;;;;1.40;0.60;;;;;;;7.05;81.77;98199.44;2877516;82;21076;-70
2022/02/06 21:14:58;;;;;;;4.03;1.15;;;;;;;7.08;82.13;98188.58;2872668;82;21525;-69